LS Concorde — ZDHJ7 — position and weather

sailwx.info

Track history (hours):
 
Tides and Currents Weather Stations Pressure Air Temp Water Temp Dewpoint Dewpoint Depression Visibility Wind Speed Wind Dir Waves Ship Positions

LS Concorde

Last reported at 2014-Jul-30 10:25 UTC. Time now 2014-Jul-30 11:13 UTC.
Position N 54°36' W 001°10'.

Length 99 m; draft 4.7 m.

Type: Tanker. MMSI: 236329000.

Date/timePositionNaut miles runAvg speedWind from/ knotsBaromVisibWave heightAir tempDewpointWater temp
2014-Jul-30 10:25N 54°36' W 001°10'0 0.0
2014-Jul-30 09:31N 54°36' W 001°10'0 0.0
2014-Jul-30 08:19N 54°36' W 001°10'0 0.0
2014-Jul-30 07:31N 54°36' W 001°10'0 0.0
2014-Jul-30 06:31N 54°36' W 001°10'3 0.2
2014-Jul-29 15:04N 54°39' W 001°09'4 8.5
2014-Jul-29 14:33N 54°43' W 001°09'0 0.0
2014-Jul-29 13:28N 54°43' W 001°09'0 0.1
2014-Jul-29 12:28N 54°43' W 001°08'0 0.0
2014-Jul-29 11:28N 54°43' W 001°09'0 0.1
2014-Jul-29 10:31N 54°43' W 001°08'0 0.0
2014-Jul-29 09:28N 54°43' W 001°08'0 0.0
2014-Jul-29 08:31N 54°43' W 001°08'0 0.1
2014-Jul-29 07:31N 54°43' W 001°08'0 0.0
2014-Jul-29 06:04N 54°43' W 001°08'0 0.0
2014-Jul-29 05:31N 54°43' W 001°08'0 0.0
2014-Jul-29 04:31N 54°43' W 001°08'0 0.0
2014-Jul-29 03:31N 54°43' W 001°08'0 0.0
2014-Jul-29 02:28N 54°43' W 001°08'0 0.0
2014-Jul-29 01:28N 54°43' W 001°08'0 0.0
2014-Jul-29 00:31N 54°43' W 001°08'0 0.0
2014-Jul-28 23:31N 54°43' W 001°09'0 0.0
2014-Jul-28 22:31N 54°43' W 001°09'0 0.0
2014-Jul-28 21:28N 54°43' W 001°09'0 0.0
2014-Jul-28 20:31N 54°43' W 001°09'0 0.0
2014-Jul-28 19:31N 54°43' W 001°09'0 0.1
2014-Jul-28 18:31N 54°43' W 001°09'4 3.8
2014-Jul-28 17:33N 54°44' W 001°02'1512.1
2014-Jul-28 16:16N 54°50' W 000°38'912.3
2014-Jul-28 15:33N 54°55' W 000°24'39411.9
2014-Jul-27 06:33N 57°49' E 010°14'1212.4
2014-Jul-27 05:33N 57°49' E 010°37'1111.0
2014-Jul-27 04:33N 57°44' E 010°55'1211.5
2014-Jul-27 03:33N 57°36' E 011°11'1211.9
2014-Jul-27 02:33N 57°27' E 011°27'1212.5
2014-Jul-27 01:33N 57°16' E 011°34'1312.5
2014-Jul-27 00:33N 57°04' E 011°42'1312.6
2014-Jul-26 23:33N 56°52' E 011°50'1313.1
2014-Jul-26 22:34N 56°39' E 011°56'1313.1
2014-Jul-26 21:34N 56°27' E 012°01'1111.5
2014-Jul-26 20:33N 56°16' E 012°10'1212.2
2014-Jul-26 19:33N 56°09' E 012°28'1312.9
2014-Jul-26 18:34N 55°59' E 012°42'1212.0
2014-Jul-26 17:34N 55°47' E 012°48'1110.8
2014-Jul-26 16:33N 55°37' E 012°54'1211.9
2014-Jul-26 15:34N 55°27' E 012°43'1010.3
2014-Jul-26 14:34N 55°17' E 012°47'1212.3
2014-Jul-26 13:33N 55°16' E 013°09'1312.6
2014-Jul-26 12:33N 55°15' E 013°31'3411.2
2014-Jul-26 09:29N 55°24' E 014°29'1112.1
2014-Jul-26 08:33N 55°30' E 014°46'1212.1
2014-Jul-26 07:33N 55°36' E 015°04'1212.4
2014-Jul-26 06:33N 55°42' E 015°23'1212.6
2014-Jul-26 05:34N 55°48' E 015°43'1412.7
2014-Jul-26 04:26N 55°55' E 016°05'1112.7
2014-Jul-26 03:33N 56°01' E 016°23'1312.6
2014-Jul-26 02:34N 56°07' E 016°41'1211.7
2014-Jul-26 01:33N 56°14' E 016°58'1312.0
2014-Jul-26 00:31N 56°22' E 017°16'1112.1
2014-Jul-25 23:34N 56°29' E 017°33'1212.1
2014-Jul-25 22:34N 56°36' E 017°50'1212.1
2014-Jul-25 21:34N 56°44' E 018°08'1212.1
2014-Jul-25 20:32N 56°51' E 018°26'1212.0
2014-Jul-25 19:33N 57°01' E 018°38'1212.1
2014-Jul-25 18:33N 57°11' E 018°51'26 2.0
2014-Jul-25 05:27N 57°37' E 018°52'0 0.0
2014-Jul-25 04:30N 57°37' E 018°52'0 0.0
2014-Jul-25 03:33N 57°37' E 018°52'0 0.0
2014-Jul-25 00:09N 57°37' E 018°52'0 0.0
2014-Jul-24 23:18N 57°37' E 018°52'0 0.0
2014-Jul-24 22:33N 57°37' E 018°52'0 0.0
2014-Jul-24 21:33N 57°37' E 018°52'0 0.0
2014-Jul-24 20:33N 57°37' E 018°52'0 0.0
2014-Jul-24 19:33N 57°37' E 018°52'0 0.0
2014-Jul-24 13:30N 57°37' E 018°52'0 0.0
2014-Jul-24 12:33N 57°37' E 018°52'0 0.0
2014-Jul-24 06:15N 57°37' E 018°52'0 0.0
2014-Jul-24 03:24N 57°37' E 018°52'0 0.0
2014-Jul-24 02:30N 57°37' E 018°52'0 0.0
2014-Jul-24 00:30N 57°37' E 018°52'0 0.0
2014-Jul-23 23:15N 57°37' E 018°52'0 0.0
2014-Jul-23 20:27N 57°37' E 018°52'0 0.0
2014-Jul-23 19:27N 57°37' E 018°52'0 0.0
2014-Jul-23 18:33N 57°37' E 018°52'0 0.0
2014-Jul-23 17:12N 57°37' E 018°52'0 0.0
2014-Jul-23 16:27N 57°37' E 018°52'0 0.0
2014-Jul-23 15:33N 57°37' E 018°52'0 0.0
2014-Jul-23 12:24N 57°37' E 018°52'0 0.0
2014-Jul-23 07:06N 57°37' E 018°52'0 0.0
2014-Jul-23 06:33N 57°37' E 018°52'0 0.0
2014-Jul-23 05:24N 57°37' E 018°52'0 0.0
2014-Jul-23 04:33N 57°37' E 018°52'0 0.0
2014-Jul-23 03:33N 57°37' E 018°52'0 0.0
2014-Jul-23 02:24N 57°37' E 018°52'0 0.0
2014-Jul-23 01:33N 57°37' E 018°52'0 0.0
2014-Jul-23 00:33N 57°37' E 018°52'0 0.0
2014-Jul-22 23:33N 57°37' E 018°52'0 0.0
2014-Jul-22 22:33N 57°37' E 018°52'0 0.0
2014-Jul-22 21:27N 57°37' E 018°52'0 0.0
2014-Jul-22 20:18N 57°37' E 018°52'0 0.0
2014-Jul-22 19:33N 57°37' E 018°52'0 0.0
2014-Jul-22 18:30N 57°37' E 018°52'0 0.0
2014-Jul-22 17:33N 57°37' E 018°52'0 0.0
2014-Jul-22 16:33N 57°37' E 018°52'0 0.0
2014-Jul-22 15:33N 57°37' E 018°52'0 0.0
2014-Jul-22 14:33N 57°37' E 018°52'0 0.0
2014-Jul-22 12:15N 57°37' E 018°52'0 0.0
2014-Jul-22 09:06N 57°37' E 018°52'0 0.0
2014-Jul-22 08:06N 57°37' E 018°52'0 0.0
2014-Jul-22 00:33N 57°37' E 018°52'0 0.0
2014-Jul-21 23:33N 57°37' E 018°52'0 0.0
2014-Jul-21 22:30N 57°37' E 018°52'0 0.0
2014-Jul-21 20:24N 57°37' E 018°52'0 0.0
2014-Jul-21 20:15N 57°37' E 018°52'0 0.0
2014-Jul-21 19:18N 57°37' E 018°52'0 0.0
2014-Jul-21 18:30N 57°37' E 018°52'1 1.1
2014-Jul-21 17:33N 57°37' E 018°50'1 0.1
2014-Jul-21 00:19N 57°37' E 018°52'0 0.0
2014-Jul-20 23:16N 57°37' E 018°52'0 0.0
2014-Jul-20 22:28N 57°37' E 018°52'0 0.0
2014-Jul-20 14:31N 57°37' E 018°52'  
Track history (hours):
 
Tides and Currents Weather Stations Pressure Air Temp Water Temp Dewpoint Dewpoint Depression Visibility Wind Speed Wind Dir Waves Ship Positions

LS Concorde

Last reported at 2014-Jul-30 10:25 UTC. Time now 2014-Jul-30 11:13 UTC.
Position N 54°36' W 001°10'.

Length 99 m; draft 4.7 m.

Type: Tanker. MMSI: 236329000.

Date/timePositionNaut miles runAvg speedWind from/ knotsBaromVisibWave heightAir tempDewpointWater temp
2014-Jul-30 10:25N 54°36' W 001°10'0 0.0
2014-Jul-30 09:31N 54°36' W 001°10'0 0.0
2014-Jul-30 08:19N 54°36' W 001°10'0 0.0
2014-Jul-30 07:31N 54°36' W 001°10'0 0.0
2014-Jul-30 06:31N 54°36' W 001°10'3 0.2
2014-Jul-29 15:04N 54°39' W 001°09'4 8.5
2014-Jul-29 14:33N 54°43' W 001°09'0 0.0
2014-Jul-29 13:28N 54°43' W 001°09'0 0.1
2014-Jul-29 12:28N 54°43' W 001°08'0 0.0
2014-Jul-29 11:28N 54°43' W 001°09'0 0.1
2014-Jul-29 10:31N 54°43' W 001°08'0 0.0
2014-Jul-29 09:28N 54°43' W 001°08'0 0.0
2014-Jul-29 08:31N 54°43' W 001°08'0 0.1
2014-Jul-29 07:31N 54°43' W 001°08'0 0.0
2014-Jul-29 06:04N 54°43' W 001°08'0 0.0
2014-Jul-29 05:31N 54°43' W 001°08'0 0.0
2014-Jul-29 04:31N 54°43' W 001°08'0 0.0
2014-Jul-29 03:31N 54°43' W 001°08'0 0.0
2014-Jul-29 02:28N 54°43' W 001°08'0 0.0
2014-Jul-29 01:28N 54°43' W 001°08'0 0.0
2014-Jul-29 00:31N 54°43' W 001°08'0 0.0
2014-Jul-28 23:31N 54°43' W 001°09'0 0.0
2014-Jul-28 22:31N 54°43' W 001°09'0 0.0
2014-Jul-28 21:28N 54°43' W 001°09'0 0.0
2014-Jul-28 20:31N 54°43' W 001°09'0 0.0
2014-Jul-28 19:31N 54°43' W 001°09'0 0.1
2014-Jul-28 18:31N 54°43' W 001°09'4 3.8
2014-Jul-28 17:33N 54°44' W 001°02'1512.1
2014-Jul-28 16:16N 54°50' W 000°38'912.3
2014-Jul-28 15:33N 54°55' W 000°24'39411.9
2014-Jul-27 06:33N 57°49' E 010°14'1212.4
2014-Jul-27 05:33N 57°49' E 010°37'1111.0
2014-Jul-27 04:33N 57°44' E 010°55'1211.5
2014-Jul-27 03:33N 57°36' E 011°11'1211.9
2014-Jul-27 02:33N 57°27' E 011°27'1212.5
2014-Jul-27 01:33N 57°16' E 011°34'1312.5
2014-Jul-27 00:33N 57°04' E 011°42'1312.6
2014-Jul-26 23:33N 56°52' E 011°50'1313.1
2014-Jul-26 22:34N 56°39' E 011°56'1313.1
2014-Jul-26 21:34N 56°27' E 012°01'1111.5
2014-Jul-26 20:33N 56°16' E 012°10'1212.2
2014-Jul-26 19:33N 56°09' E 012°28'1312.9
2014-Jul-26 18:34N 55°59' E 012°42'1212.0
2014-Jul-26 17:34N 55°47' E 012°48'1110.8
2014-Jul-26 16:33N 55°37' E 012°54'1211.9
2014-Jul-26 15:34N 55°27' E 012°43'1010.3
2014-Jul-26 14:34N 55°17' E 012°47'1212.3
2014-Jul-26 13:33N 55°16' E 013°09'1312.6
2014-Jul-26 12:33N 55°15' E 013°31'3411.2
2014-Jul-26 09:29N 55°24' E 014°29'1112.1
2014-Jul-26 08:33N 55°30' E 014°46'1212.1
2014-Jul-26 07:33N 55°36' E 015°04'1212.4
2014-Jul-26 06:33N 55°42' E 015°23'1212.6
2014-Jul-26 05:34N 55°48' E 015°43'1412.7
2014-Jul-26 04:26N 55°55' E 016°05'1112.7
2014-Jul-26 03:33N 56°01' E 016°23'1312.6
2014-Jul-26 02:34N 56°07' E 016°41'1211.7
2014-Jul-26 01:33N 56°14' E 016°58'1312.0
2014-Jul-26 00:31N 56°22' E 017°16'1112.1
2014-Jul-25 23:34N 56°29' E 017°33'1212.1
2014-Jul-25 22:34N 56°36' E 017°50'1212.1
2014-Jul-25 21:34N 56°44' E 018°08'1212.1
2014-Jul-25 20:32N 56°51' E 018°26'1212.0
2014-Jul-25 19:33N 57°01' E 018°38'1212.1
2014-Jul-25 18:33N 57°11' E 018°51'26 2.0
2014-Jul-25 05:27N 57°37' E 018°52'0 0.0
2014-Jul-25 04:30N 57°37' E 018°52'0 0.0
2014-Jul-25 03:33N 57°37' E 018°52'0 0.0
2014-Jul-25 00:09N 57°37' E 018°52'0 0.0
2014-Jul-24 23:18N 57°37' E 018°52'0 0.0
2014-Jul-24 22:33N 57°37' E 018°52'0 0.0
2014-Jul-24 21:33N 57°37' E 018°52'0 0.0
2014-Jul-24 20:33N 57°37' E 018°52'0 0.0
2014-Jul-24 19:33N 57°37' E 018°52'0 0.0
2014-Jul-24 13:30N 57°37' E 018°52'0 0.0
2014-Jul-24 12:33N 57°37' E 018°52'0 0.0
2014-Jul-24 06:15N 57°37' E 018°52'0 0.0
2014-Jul-24 03:24N 57°37' E 018°52'0 0.0
2014-Jul-24 02:30N 57°37' E 018°52'0 0.0
2014-Jul-24 00:30N 57°37' E 018°52'0 0.0
2014-Jul-23 23:15N 57°37' E 018°52'0 0.0
2014-Jul-23 20:27N 57°37' E 018°52'0 0.0
2014-Jul-23 19:27N 57°37' E 018°52'0 0.0
2014-Jul-23 18:33N 57°37' E 018°52'0 0.0
2014-Jul-23 17:12N 57°37' E 018°52'0 0.0
2014-Jul-23 16:27N 57°37' E 018°52'0 0.0
2014-Jul-23 15:33N 57°37' E 018°52'0 0.0
2014-Jul-23 12:24N 57°37' E 018°52'0 0.0
2014-Jul-23 07:06N 57°37' E 018°52'0 0.0
2014-Jul-23 06:33N 57°37' E 018°52'0 0.0
2014-Jul-23 05:24N 57°37' E 018°52'0 0.0
2014-Jul-23 04:33N 57°37' E 018°52'0 0.0
2014-Jul-23 03:33N 57°37' E 018°52'0 0.0
2014-Jul-23 02:24N 57°37' E 018°52'0 0.0
2014-Jul-23 01:33N 57°37' E 018°52'0 0.0
2014-Jul-23 00:33N 57°37' E 018°52'0 0.0
2014-Jul-22 23:33N 57°37' E 018°52'0 0.0
2014-Jul-22 22:33N 57°37' E 018°52'0 0.0
2014-Jul-22 21:27N 57°37' E 018°52'0 0.0
2014-Jul-22 20:18N 57°37' E 018°52'0 0.0
2014-Jul-22 19:33N 57°37' E 018°52'0 0.0
2014-Jul-22 18:30N 57°37' E 018°52'0 0.0
2014-Jul-22 17:33N 57°37' E 018°52'0 0.0
2014-Jul-22 16:33N 57°37' E 018°52'0 0.0
2014-Jul-22 15:33N 57°37' E 018°52'0 0.0
2014-Jul-22 14:33N 57°37' E 018°52'0 0.0
2014-Jul-22 12:15N 57°37' E 018°52'0 0.0
2014-Jul-22 09:06N 57°37' E 018°52'0 0.0
2014-Jul-22 08:06N 57°37' E 018°52'0 0.0
2014-Jul-22 00:33N 57°37' E 018°52'0 0.0
2014-Jul-21 23:33N 57°37' E 018°52'0 0.0
2014-Jul-21 22:30N 57°37' E 018°52'0 0.0
2014-Jul-21 20:24N 57°37' E 018°52'0 0.0
2014-Jul-21 20:15N 57°37' E 018°52'0 0.0
2014-Jul-21 19:18N 57°37' E 018°52'0 0.0
2014-Jul-21 18:30N 57°37' E 018°52'1 1.1
2014-Jul-21 17:33N 57°37' E 018°50'1 0.1
2014-Jul-21 00:19N 57°37' E 018°52'0 0.0
2014-Jul-20 23:16N 57°37' E 018°52'0 0.0
2014-Jul-20 22:28N 57°37' E 018°52'0 0.0
2014-Jul-20 14:31N 57°37' E 018°52'  

Dump ship's entire track history